Airfield :
LOGIN :

Register | Disclaimer

   EN    FR    IT 

 










Legend :    VFR   Marginal VFR   IFR   Intensive IFR   Very Intensive IFR
Visi :
Ceiling :
>= 8 km
>= 3000ft
5 to 8 km
1000 to 3000 ft
1500m to 5 km
500 to 1000 ft
800 to 1500m
200 to 500 ft
< 800m
< 200 ft
Symbols :   Thunderstorms  Fog  Heavy snow  Heavy precipitations  Wind > 20 kt
SIGMETs :     Misc.  Thunderstorms  Icing  Turbulence  Mountain Waves  Volcanic Ashes






- Airport Elevation : 20 ft
- IATA code : LSI


EGPB - Sumburgh

CURRENT METAR :
  • 092150Z AUTO 18007KT 9999 NCD 04/M03 Q1011

EXPIRED METARs :
  • 092120Z AUTO 18004KT 9999 SCT041/// 03/M03 Q1011
  • 092050Z AUTO 14001KT 9999 BKN042/// 01/M03 Q1012
  • 092020Z AUTO 00000KT 9999 BKN044/// 02/M03 Q1012
  • 091950Z 00000KT 9999 BKN045 02/M03 Q1012
  • 091920Z 00000KT 9999 BKN040 02/M03 Q1012
  • 091850Z 36002KT 9999 BKN040 03/M03 Q1012

TAF TAF EGPB
Valid from the 09 at 21:00 until the 10 at 06:00 UTC


091953Z 0921/1006 18009KT 9999 SCT040
BECMG 0921/0924 18022KT
TEMPO 1000/1003 6000 RA BKN012
TEMPO 1000/1002 18028G40KT
PROB40
TEMPO 1000/1003 4000 RADZ BKN009
BECMG 1002/1005 18028G38KT
TEMPO 1003/1006 18035G48KT



MET'MAP, your aeronautical weather chart ! - Copyright ORBIFLY December 2007 - Disclaimer

ORBIFLY MET'MAP TEAM :

Programming & Development : Alexandra Zaïnal
Concept & original design : Baudouin d'Aumeries
Assistance for programming : Marc-Olivier Méhu
Technical & hardware support : Manuel Goepfert

Contact : metmap@orbifly.com




SOURCES & CREDITS :

   NOAA